createdAt,value
2022-08-03T00:02:19.817Z,77.01
2022-08-03T00:04:52.937Z,77.18
2022-08-03T00:07:22.467Z,74.50
2022-08-03T00:09:50.615Z,74.71
2022-08-03T00:12:18.885Z,73.72
2022-08-03T00:14:47.137Z,74.56
2022-08-03T00:17:15.216Z,74.88
2022-08-03T00:19:43.640Z,74.49
2022-08-03T00:22:11.712Z,74.95
2022-08-03T00:24:41.325Z,75.90
2022-08-03T00:27:09.423Z,77.97
2022-08-03T00:29:59.565Z,76.95
2022-08-03T00:32:26.120Z,77.00
2022-08-03T00:34:58.499Z,76.69
2022-08-03T00:37:40.742Z,77.73
2022-08-03T00:40:13.683Z,77.34
2022-08-03T00:42:53.838Z,76.54
2022-08-03T00:45:23.337Z,76.31
2022-08-03T00:47:51.743Z,75.18
2022-08-03T00:50:22.944Z,75.37
2022-08-03T00:52:52.881Z,74.36
2022-08-03T00:55:22.785Z,75.10
2022-08-03T00:57:51.504Z,75.59
2022-08-03T01:00:22.851Z,76.78
2022-08-03T01:02:51.598Z,78.50
2022-08-03T01:05:20.261Z,80.88
2022-08-03T01:08:01.535Z,81.63
2022-08-03T01:10:38.625Z,81.21
2022-08-03T01:13:59.820Z,80.63
2022-08-03T01:16:13.587Z,79.75
2022-08-03T01:18:48.489Z,77.23
2022-08-03T01:21:25.803Z,77.79
2022-08-03T01:24:04.859Z,77.86
2022-08-03T01:26:54.907Z,78.04
2022-08-03T01:29:45.986Z,77.45
2022-08-03T01:32:58.463Z,78.46
2022-08-03T01:35:10.692Z,79.45
2022-08-03T01:37:44.174Z,79.79
2022-08-03T01:40:15.432Z,80.49
2022-08-03T01:42:46.666Z,81.68
2022-08-03T01:45:19.132Z,82.91
2022-08-03T01:47:49.608Z,83.03
2022-08-03T01:50:22.192Z,84.04
2022-08-03T01:52:53.111Z,83.76
2022-08-03T01:55:22.875Z,82.90
2022-08-03T01:58:06.087Z,82.85
2022-08-03T02:00:37.842Z,82.55
2022-08-03T02:03:08.175Z,83.85
2022-08-03T02:05:37.625Z,86.91
2022-08-03T02:08:08.422Z,86.31
2022-08-03T02:10:38.789Z,86.12
2022-08-03T02:13:09.309Z,86.29
2022-08-03T02:15:40.088Z,86.86
2022-08-03T02:18:10.852Z,88.53
2022-08-03T02:20:40.960Z,89.62
2022-08-03T02:23:09.703Z,89.44
2022-08-03T02:25:45.830Z,91.46
2022-08-03T02:28:20.272Z,92.18
2022-08-03T02:30:54.796Z,94.35
2022-08-03T02:33:32.891Z,94.09
2022-08-03T02:36:03.269Z,95.80
2022-08-03T02:38:34.848Z,95.61
2022-08-03T02:41:09.116Z,94.57
2022-08-03T02:43:57.716Z,95.79
2022-08-03T02:46:33.609Z,99.17
2022-08-03T02:49:49.694Z,100.00
2022-08-03T02:51:54.374Z,99.56
2022-08-03T02:54:25.957Z,100.00
2022-08-03T02:56:58.144Z,100.00
2022-08-03T02:59:31.190Z,100.00
2022-08-03T03:02:01.504Z,100.00
2022-08-03T03:04:33.270Z,100.00
2022-08-03T03:07:04.362Z,100.00
2022-08-03T03:09:41.658Z,100.00
2022-08-03T03:12:14.345Z,100.00
2022-08-03T03:14:42.858Z,100.00
2022-08-03T03:17:13.313Z,100.00
2022-08-03T03:19:45.192Z,100.00
2022-08-03T03:22:15.272Z,100.00
2022-08-03T03:24:45.875Z,100.00
2022-08-03T03:27:16.785Z,100.00
2022-08-03T03:29:46.021Z,100.00
2022-08-03T03:32:16.357Z,100.00
2022-08-03T03:34:45.167Z,100.00
2022-08-03T03:37:13.900Z,100.00
2022-08-03T03:39:42.749Z,100.00
2022-08-03T03:42:11.001Z,100.00
2022-08-03T03:44:39.128Z,100.00
2022-08-03T03:47:07.512Z,100.00
2022-08-03T03:49:37.894Z,100.00
2022-08-03T03:52:07.587Z,100.00
2022-08-03T03:54:41.825Z,100.00
2022-08-03T03:57:13.006Z,100.00
2022-08-03T03:59:43.321Z,100.00
2022-08-03T04:02:12.705Z,100.00
2022-08-03T04:04:59.396Z,100.00
2022-08-03T04:07:46.359Z,100.00
2022-08-03T04:10:37.530Z,100.00
2022-08-03T04:13:10.040Z,93.61
2022-08-03T04:15:40.703Z,90.83
2022-08-03T04:18:12.935Z,85.00
2022-08-03T04:20:47.665Z,79.62
2022-08-03T04:23:19.231Z,79.46
2022-08-03T04:25:52.639Z,76.13
2022-08-03T04:28:31.088Z,79.82
2022-08-03T04:31:00.885Z,82.11
2022-08-03T04:33:32.441Z,85.04
2022-08-03T04:36:05.282Z,85.63
2022-08-03T04:38:38.615Z,83.93
2022-08-03T04:41:09.977Z,83.14
2022-08-03T04:43:41.801Z,81.31
2022-08-03T04:46:11.404Z,79.90
2022-08-03T04:48:43.521Z,80.88
2022-08-03T04:51:14.621Z,76.41
2022-08-03T04:53:44.412Z,73.53
2022-08-03T04:56:12.760Z,73.38
2022-08-03T04:58:40.858Z,67.53
2022-08-03T05:01:08.985Z,64.56
2022-08-03T05:03:37.336Z,63.77
2022-08-03T05:06:11.156Z,66.04
2022-08-03T05:08:45.292Z,67.39
2022-08-03T05:11:15.835Z,64.55
2022-08-03T05:13:43.977Z,66.66
2022-08-03T05:16:13.861Z,64.67
2022-08-03T05:18:42.418Z,62.32
2022-08-03T05:21:10.698Z,61.55
2022-08-03T05:23:39.088Z,60.34
2022-08-03T05:26:08.554Z,58.81
2022-08-03T05:28:36.751Z,58.93
2022-08-03T05:31:04.842Z,56.56
2022-08-03T05:33:32.995Z,55.93
2022-08-03T05:36:04.296Z,57.02
2022-08-03T05:38:34.592Z,54.27
2022-08-03T05:41:22.168Z,55.72
2022-08-03T05:43:54.762Z,52.41
2022-08-03T05:46:23.337Z,52.68
2022-08-03T05:48:51.965Z,52.44
2022-08-03T05:51:20.286Z,52.74
2022-08-03T05:53:48.436Z,53.25
2022-08-03T05:56:17.112Z,53.58
2022-08-03T05:58:47.200Z,53.14
2022-08-03T06:01:17.942Z,49.44
2022-08-03T06:03:46.347Z,49.60
2022-08-03T06:06:14.695Z,48.46
2022-08-03T06:08:44.282Z,48.10
2022-08-03T06:11:12.687Z,45.19
2022-08-03T06:13:41.605Z,47.97
2022-08-03T06:16:10.051Z,45.96
2022-08-03T06:18:40.488Z,46.35
2022-08-03T06:21:15.170Z,47.04
2022-08-03T06:23:52.745Z,44.28
2022-08-03T06:26:23.817Z,43.48
2022-08-03T06:28:54.175Z,43.78
2022-08-03T06:31:24.216Z,43.63
2022-08-03T06:34:32.100Z,42.04
2022-08-03T06:36:41.892Z,44.11
2022-08-03T06:39:10.182Z,43.62
2022-08-03T06:41:44.819Z,43.19
2022-08-03T06:44:13.428Z,42.23
2022-08-03T06:46:42.354Z,41.62
2022-08-03T06:49:11.921Z,39.03
2022-08-03T06:52:05.369Z,37.99
2022-08-03T06:54:30.210Z,40.34
2022-08-03T06:57:01.078Z,41.97
2022-08-03T07:00:09.553Z,42.45
2022-08-03T07:02:19.379Z,41.60
2022-08-03T07:04:49.180Z,40.84
2022-08-03T07:07:17.554Z,43.70
2022-08-03T07:09:55.660Z,46.12
2022-08-03T07:12:27.465Z,46.83
2022-08-03T07:15:00.295Z,47.65
2022-08-03T07:17:30.125Z,49.46
2022-08-03T07:20:01.771Z,48.43
2022-08-03T07:22:30.204Z,48.92
2022-08-03T07:24:58.357Z,50.00
2022-08-03T07:27:28.617Z,49.95
2022-08-03T07:29:58.111Z,49.99
2022-08-03T07:32:26.516Z,51.10
2022-08-03T07:34:59.953Z,50.63
2022-08-03T07:37:31.026Z,48.33
2022-08-03T07:40:00.096Z,47.43
2022-08-03T07:42:28.309Z,47.14
2022-08-03T07:44:57.101Z,47.65
2022-08-03T07:47:35.434Z,47.98
2022-08-03T07:50:06.629Z,48.12
2022-08-03T07:52:51.673Z,47.66
2022-08-03T07:55:21.705Z,47.03
2022-08-03T07:58:01.070Z,46.80
2022-08-03T08:00:29.754Z,47.54
2022-08-03T08:02:57.870Z,48.14
2022-08-03T08:05:26.428Z,49.22
2022-08-03T08:07:56.313Z,49.18
2022-08-03T08:10:24.668Z,49.52
2022-08-03T08:12:52.989Z,49.92
2022-08-03T08:15:21.248Z,49.51
2022-08-03T08:17:51.170Z,48.98
2022-08-03T08:20:28.086Z,49.01
2022-08-03T08:23:02.006Z,48.27
2022-08-03T08:25:32.492Z,48.60
2022-08-03T08:28:30.890Z,48.34
2022-08-03T08:30:51.857Z,49.00
2022-08-03T08:33:23.251Z,48.11
2022-08-03T08:35:53.604Z,48.51
2022-08-03T08:38:24.202Z,47.72
2022-08-03T08:40:52.590Z,49.00
2022-08-03T08:43:20.683Z,48.94
2022-08-03T08:45:50.779Z,47.93
2022-08-03T08:48:23.538Z,47.30
2022-08-03T08:50:53.678Z,46.61
2022-08-03T08:53:27.250Z,46.17
2022-08-03T08:56:00.752Z,45.47
2022-08-03T08:58:32.012Z,46.54
2022-08-03T09:01:00.278Z,45.31
2022-08-03T09:03:30.211Z,44.90
2022-08-03T09:06:02.290Z,44.62
2022-08-03T09:08:33.518Z,45.80
2022-08-03T09:11:01.807Z,46.14
2022-08-03T09:13:30.566Z,45.35
2022-08-03T09:16:11.901Z,46.32
2022-08-03T09:18:40.738Z,45.88
2022-08-03T09:21:34.300Z,45.54
2022-08-03T09:24:10.230Z,45.00
2022-08-03T09:26:41.398Z,45.29
2022-08-03T09:29:15.358Z,45.64
2022-08-03T09:31:46.297Z,45.78
2022-08-03T09:34:17.697Z,45.23
2022-08-03T09:36:47.680Z,46.11
2022-08-03T09:39:18.576Z,45.37
2022-08-03T09:41:48.193Z,45.31
2022-08-03T09:44:25.471Z,44.77
2022-08-03T09:46:56.402Z,43.78
2022-08-03T09:49:25.880Z,42.89
2022-08-03T09:52:31.607Z,42.60
2022-08-03T09:54:44.984Z,42.72
2022-08-03T09:57:23.101Z,42.18
2022-08-03T10:00:03.011Z,42.46
2022-08-03T10:02:35.105Z,41.82
2022-08-03T10:05:03.282Z,41.55
2022-08-03T10:07:31.589Z,41.33
2022-08-03T10:10:28.987Z,41.41
2022-08-03T10:12:53.374Z,42.23
2022-08-03T10:16:23.719Z,41.52
2022-08-03T10:18:10.533Z,41.53
2022-08-03T10:20:42.417Z,40.86
2022-08-03T10:23:12.230Z,40.34
2022-08-03T10:25:43.802Z,40.81
2022-08-03T10:28:16.151Z,42.19
2022-08-03T10:30:49.289Z,41.71
2022-08-03T10:33:52.012Z,41.92
2022-08-03T10:36:09.592Z,41.89
2022-08-03T10:38:41.426Z,42.09
2022-08-03T10:41:12.059Z,40.92
2022-08-03T10:43:49.100Z,40.71
2022-08-03T10:46:20.667Z,41.62
2022-08-03T10:48:52.540Z,41.49
2022-08-03T10:51:21.849Z,40.93
2022-08-03T10:53:54.788Z,40.54
2022-08-03T10:57:08.779Z,39.98
2022-08-03T11:00:03.257Z,40.19
2022-08-03T11:03:08.718Z,40.26
2022-08-03T11:05:39.971Z,38.51
2022-08-03T11:08:23.293Z,39.47
2022-08-03T11:10:52.913Z,39.92
2022-08-03T11:13:24.108Z,40.94
2022-08-03T11:15:59.726Z,40.75
2022-08-03T11:18:30.033Z,40.38
2022-08-03T11:20:59.832Z,39.30
2022-08-03T11:24:04.889Z,38.06
2022-08-03T11:26:34.769Z,38.44
2022-08-03T11:29:30.365Z,38.22
2022-08-03T11:31:58.837Z,38.13
2022-08-03T11:34:27.230Z,38.58
2022-08-03T11:37:27.282Z,38.77
2022-08-03T11:39:57.033Z,37.97
2022-08-03T11:42:50.764Z,37.89
2022-08-03T11:45:20.218Z,37.80
2022-08-03T11:47:51.433Z,37.36
2022-08-03T11:50:21.507Z,37.12
2022-08-03T11:52:50.776Z,36.64
2022-08-03T11:55:22.196Z,37.43
2022-08-03T11:59:15.278Z,37.48
2022-08-03T12:00:40.819Z,37.34
2022-08-03T12:03:11.278Z,36.30
2022-08-03T12:05:51.325Z,36.08
2022-08-03T12:08:32.249Z,35.36
2022-08-03T12:11:02.133Z,35.61
2022-08-03T12:14:45.072Z,35.77
2022-08-03T12:16:29.768Z,36.28
2022-08-03T12:18:58.966Z,36.16
2022-08-03T12:21:27.119Z,35.29
2022-08-03T12:24:00.323Z,35.54
2022-08-03T12:26:29.603Z,35.38
2022-08-03T12:28:58.433Z,35.01
2022-08-03T12:31:28.042Z,34.71
2022-08-03T12:34:03.294Z,34.81
2022-08-03T12:36:33.628Z,34.44
2022-08-03T12:39:03.572Z,33.95
2022-08-03T12:41:34.109Z,33.81
2022-08-03T12:44:03.649Z,33.68
2022-08-03T12:46:35.283Z,33.58
2022-08-03T12:49:07.653Z,32.75
2022-08-03T12:51:37.872Z,32.13
2022-08-03T12:54:06.829Z,31.59
2022-08-03T12:57:01.048Z,32.27
2022-08-03T12:59:34.751Z,33.32
2022-08-03T13:02:09.588Z,32.25
2022-08-03T13:04:38.208Z,32.48
2022-08-03T13:07:12.902Z,32.04
2022-08-03T13:09:47.866Z,32.08
2022-08-03T13:12:17.673Z,32.43
2022-08-03T13:14:48.221Z,32.50
2022-08-03T13:17:18.229Z,32.78
2022-08-03T13:19:49.218Z,32.69
2022-08-03T13:22:19.610Z,32.38
2022-08-03T13:24:50.277Z,31.84
2022-08-03T13:28:01.908Z,32.37
2022-08-03T13:30:10.361Z,31.77
2022-08-03T13:32:40.144Z,31.97
2022-08-03T13:35:09.808Z,31.83
2022-08-03T13:37:38.366Z,32.22
2022-08-03T13:40:08.508Z,31.10
2022-08-03T13:42:40.256Z,31.51
2022-08-03T13:45:09.270Z,31.53
2022-08-03T13:47:38.931Z,32.04
2022-08-03T13:50:07.854Z,31.87
2022-08-03T13:52:37.139Z,31.52
2022-08-03T13:55:07.617Z,32.07
2022-08-03T13:58:05.623Z,31.98
2022-08-03T14:00:28.666Z,31.66
2022-08-03T14:03:06.631Z,31.37
2022-08-03T14:05:38.856Z,31.13
2022-08-03T14:08:07.884Z,31.60
2022-08-03T14:10:37.248Z,31.46
2022-08-03T14:13:05.637Z,31.08
2022-08-03T14:15:37.807Z,31.04
2022-08-03T14:18:12.831Z,31.30
2022-08-03T14:20:48.616Z,31.52
2022-08-03T14:23:19.283Z,31.26
2022-08-03T14:25:51.883Z,31.32
2022-08-03T14:28:22.542Z,31.24
2022-08-03T14:30:51.505Z,31.34
2022-08-03T14:33:21.171Z,31.24
2022-08-03T14:35:49.961Z,31.23
2022-08-03T14:38:18.797Z,31.56
2022-08-03T14:40:47.877Z,31.60
2022-08-03T14:43:17.894Z,31.78
2022-08-03T14:45:46.075Z,31.27
2022-08-03T14:50:27.763Z,31.68
2022-08-03T14:51:05.379Z,31.17
2022-08-03T14:53:33.567Z,30.69
2022-08-03T14:56:05.235Z,30.48
2022-08-03T14:58:36.032Z,30.42
2022-08-03T15:02:04.469Z,30.78
2022-08-03T15:03:52.796Z,29.28
2022-08-03T15:06:22.531Z,29.54
2022-08-03T15:09:06.237Z,29.10
2022-08-03T15:11:38.991Z,28.82
2022-08-03T15:14:09.353Z,28.38
2022-08-03T15:16:38.146Z,28.54
2022-08-03T15:20:01.407Z,29.03
2022-08-03T15:21:56.310Z,28.92
2022-08-03T15:24:24.407Z,28.79
2022-08-03T15:26:53.140Z,28.51
2022-08-03T15:30:08.168Z,29.16
2022-08-03T15:32:09.830Z,28.90
2022-08-03T15:34:40.686Z,28.77
2022-08-03T15:37:20.792Z,28.93
2022-08-03T15:39:59.918Z,28.79
2022-08-03T15:42:29.692Z,29.20
2022-08-03T15:44:58.111Z,28.74
2022-08-03T15:47:26.254Z,28.88
2022-08-03T15:49:55.732Z,28.98
2022-08-03T15:52:25.380Z,29.61
2022-08-03T15:54:53.474Z,29.65
2022-08-03T15:57:22.318Z,29.73
2022-08-03T15:59:55.083Z,29.54
2022-08-03T16:02:38.163Z,30.25
2022-08-03T16:05:21.088Z,29.94
2022-08-03T16:08:13.962Z,30.12
2022-08-03T16:10:42.715Z,30.51
2022-08-03T16:13:10.847Z,30.29
2022-08-03T16:15:39.798Z,30.02
2022-08-03T16:18:08.067Z,29.86
2022-08-03T16:20:36.249Z,30.21
2022-08-03T16:23:10.457Z,29.77
2022-08-03T16:25:41.893Z,29.91
2022-08-03T16:28:14.712Z,30.29
2022-08-03T16:30:45.043Z,30.36
2022-08-03T16:33:16.980Z,30.30
2022-08-03T16:35:45.581Z,30.95
2022-08-03T16:38:18.594Z,30.22
2022-08-03T16:40:52.763Z,30.43
2022-08-03T16:43:22.158Z,30.34
2022-08-03T16:45:50.474Z,30.62
2022-08-03T16:48:19.816Z,30.09
2022-08-03T16:50:48.645Z,29.75
2022-08-03T16:53:17.630Z,29.93
2022-08-03T16:56:05.613Z,29.90
2022-08-03T16:58:42.243Z,29.55
2022-08-03T17:01:22.299Z,30.02
2022-08-03T17:04:01.272Z,30.27
2022-08-03T17:06:34.569Z,30.03
2022-08-03T17:09:09.107Z,30.29
2022-08-03T17:11:43.885Z,30.66
2022-08-03T17:14:15.890Z,30.68
2022-08-03T17:16:52.854Z,31.04
2022-08-03T17:19:24.085Z,31.46
2022-08-03T17:21:58.475Z,31.78
2022-08-03T17:24:32.234Z,31.74
2022-08-03T17:27:08.724Z,32.38
2022-08-03T17:29:47.354Z,32.56
2022-08-03T17:32:21.386Z,32.95
2022-08-03T17:34:50.124Z,33.39
2022-08-03T17:37:50.692Z,33.65
2022-08-03T17:40:17.400Z,33.93
2022-08-03T17:42:50.488Z,34.17
2022-08-03T17:45:20.087Z,34.35
2022-08-03T17:47:57.077Z,34.06
2022-08-03T17:50:35.786Z,34.58
2022-08-03T17:56:44.595Z,34.91
2022-08-03T17:59:16.932Z,34.98
2022-08-03T18:02:34.219Z,35.23
2022-08-03T18:05:17.205Z,35.61
2022-08-03T18:07:47.736Z,35.99
2022-08-03T18:10:22.016Z,35.97
2022-08-03T18:12:55.660Z,36.44
2022-08-03T18:15:30.469Z,36.67
2022-08-03T18:18:10.677Z,36.81
2022-08-03T18:20:42.387Z,36.78
2022-08-03T18:23:25.121Z,37.19
2022-08-03T18:26:02.390Z,37.23
2022-08-03T18:28:34.963Z,37.63
2022-08-03T18:31:07.536Z,37.20
2022-08-03T18:34:16.594Z,37.23
2022-08-03T18:36:30.378Z,37.66
2022-08-03T18:39:02.615Z,37.74
2022-08-03T18:41:34.349Z,38.12
2022-08-03T18:44:08.203Z,37.86
2022-08-03T18:47:16.256Z,38.04
2022-08-03T18:49:58.282Z,37.59
2022-08-03T18:52:32.101Z,37.94
2022-08-03T18:55:14.089Z,38.33
2022-08-03T18:57:53.376Z,38.28
2022-08-03T19:00:54.092Z,38.83
2022-08-03T19:03:42.898Z,39.68
2022-08-03T19:06:20.367Z,40.23
2022-08-03T19:08:55.605Z,39.92
2022-08-03T19:11:29.042Z,40.26
2022-08-03T19:14:21.500Z,41.39
2022-08-03T19:17:05.783Z,41.05
2022-08-03T19:19:43.573Z,41.42
2022-08-03T19:22:15.890Z,42.35
2022-08-03T19:24:47.747Z,42.90
2022-08-03T19:27:16.569Z,43.42
2022-08-03T19:29:57.862Z,43.55
2022-08-03T19:32:29.754Z,43.13
2022-08-03T19:35:01.160Z,43.37
2022-08-03T19:37:38.204Z,44.05
2022-08-03T19:40:10.711Z,45.26
2022-08-03T19:42:45.437Z,43.94
2022-08-03T19:45:20.061Z,43.03
2022-08-03T19:47:53.414Z,45.12
2022-08-03T19:50:23.343Z,46.52
2022-08-03T19:52:52.849Z,45.82
2022-08-03T19:55:21.438Z,45.27
2022-08-03T19:57:54.703Z,45.03
2022-08-03T20:00:30.581Z,45.40
2022-08-03T20:03:06.064Z,45.46
2022-08-03T20:05:52.254Z,45.16
2022-08-03T20:08:29.593Z,44.81
2022-08-03T20:10:59.649Z,45.96
2022-08-03T20:13:31.462Z,46.49
2022-08-03T20:16:07.581Z,45.32
2022-08-03T20:18:39.526Z,45.70
2022-08-03T20:21:14.888Z,45.83
2022-08-03T20:23:45.512Z,45.68
2022-08-03T20:26:33.563Z,45.55
2022-08-03T20:29:09.164Z,46.38
2022-08-03T20:31:38.511Z,46.47
2022-08-03T20:34:08.513Z,46.55
2022-08-03T20:36:38.654Z,46.46
2022-08-03T20:39:07.658Z,47.00
2022-08-03T20:41:37.248Z,47.91
2022-08-03T20:44:07.072Z,48.18
2022-08-03T20:46:50.249Z,47.89
2022-08-03T20:49:24.509Z,47.41
2022-08-03T20:51:54.104Z,47.29
2022-08-03T20:54:29.594Z,47.37
2022-08-03T20:57:00.559Z,47.38
2022-08-03T20:59:47.373Z,46.80
2022-08-03T21:02:29.636Z,47.01
2022-08-03T21:05:03.526Z,46.86
2022-08-03T21:07:45.578Z,46.92
2022-08-03T21:10:31.702Z,47.19
2022-08-03T21:13:04.918Z,34.45
2022-08-03T21:13:16.002Z,47.69
2022-08-03T21:16:06.065Z,48.19
2022-08-03T21:18:39.457Z,48.72
2022-08-03T21:21:11.147Z,48.10
2022-08-03T21:23:49.054Z,47.50
2022-08-03T21:26:19.279Z,47.20
2022-08-03T21:28:48.408Z,47.09
2022-08-03T21:31:24.206Z,46.64
2022-08-03T21:33:56.208Z,46.69
2022-08-03T21:36:25.344Z,46.26
2022-08-03T21:38:56.986Z,45.91
2022-08-03T21:41:26.489Z,46.73
2022-08-03T21:43:54.765Z,46.88
2022-08-03T21:46:23.722Z,47.05
2022-08-03T21:48:56.662Z,47.35
2022-08-03T21:51:45.502Z,48.40
2022-08-03T21:54:15.552Z,48.76
2022-08-03T21:56:48.300Z,49.95
2022-08-03T21:59:18.811Z,48.36
2022-08-03T22:01:51.304Z,47.74
2022-08-03T22:04:38.758Z,49.42
2022-08-03T22:07:08.476Z,50.40
2022-08-03T22:09:38.421Z,51.18
2022-08-03T22:12:07.420Z,51.26
2022-08-03T22:14:35.667Z,53.13
2022-08-03T22:17:07.106Z,52.88
2022-08-03T22:19:35.570Z,53.20
2022-08-03T22:22:06.162Z,53.51
2022-08-03T22:24:37.239Z,53.43
2022-08-03T22:27:24.279Z,53.42
2022-08-03T22:29:54.134Z,53.58
2022-08-03T22:32:22.433Z,54.31
2022-08-03T22:34:51.078Z,55.31
2022-08-03T22:37:22.189Z,54.50
2022-08-03T22:39:50.768Z,55.36
2022-08-03T22:42:21.035Z,56.19
2022-08-03T22:44:50.694Z,57.61
2022-08-03T22:47:22.478Z,58.50
2022-08-03T22:50:31.747Z,58.61
2022-08-03T22:52:43.977Z,59.03
2022-08-03T22:55:24.499Z,58.87
2022-08-03T22:57:55.739Z,58.63
2022-08-03T23:00:25.426Z,58.71
2022-08-03T23:02:56.287Z,59.62
2022-08-03T23:06:00.992Z,58.56
2022-08-03T23:08:22.008Z,59.03
2022-08-03T23:10:51.581Z,61.21
2022-08-03T23:13:25.138Z,60.91
2022-08-03T23:15:57.108Z,61.97
2022-08-03T23:18:28.911Z,62.96
2022-08-03T23:20:59.919Z,63.53
2022-08-03T23:23:30.663Z,62.98
2022-08-03T23:26:14.237Z,63.71
2022-08-03T23:28:48.212Z,63.29
2022-08-03T23:31:16.603Z,64.05
2022-08-03T23:33:46.391Z,63.77
2022-08-03T23:36:30.626Z,63.29
2022-08-03T23:39:03.477Z,63.98
2022-08-03T23:41:33.837Z,63.91
2022-08-03T23:44:04.877Z,64.15
2022-08-03T23:46:34.126Z,64.28
2022-08-03T23:49:02.340Z,64.76
2022-08-03T23:51:40.510Z,65.67
2022-08-03T23:54:18.052Z,64.21
2022-08-03T23:56:55.184Z,66.01
2022-08-03T23:59:33.273Z,67.01
